createdAt,value
2017-07-31T07:42:10.255Z,27.8
2017-07-31T07:43:11.924Z,28.0
2017-07-31T07:45:04.219Z,28.7
2017-07-31T07:46:05.954Z,28.8
2017-07-31T07:47:07.639Z,28.6
2017-07-31T07:48:09.325Z,28.7
2017-07-31T07:49:11.002Z,28.4
2017-07-31T07:50:12.710Z,28.6
2017-07-31T07:51:14.486Z,28.7
2017-07-31T07:52:16.148Z,28.8
2017-07-31T07:53:17.829Z,28.9
2017-07-31T07:54:19.508Z,28.7
2017-07-31T07:55:21.193Z,29.0
2017-07-31T07:56:22.878Z,29.0
2017-07-31T07:57:24.555Z,28.4
2017-07-31T07:58:26.238Z,28.3
2017-07-31T07:59:27.916Z,28.5
2017-07-31T08:00:29.623Z,28.5
2017-07-31T08:01:31.317Z,28.7
2017-07-31T08:02:33.122Z,29.2
2017-07-31T08:03:35.019Z,29.0
2017-07-31T08:04:36.701Z,28.9
2017-07-31T08:05:38.388Z,29.5
2017-07-31T08:06:40.220Z,29.3
2017-07-31T08:07:41.976Z,29.0
2017-07-31T08:08:43.791Z,29.6
2017-07-31T08:09:45.467Z,29.3
2017-07-31T08:10:47.149Z,29.0
2017-07-31T08:11:48.836Z,28.5
2017-07-31T08:12:50.548Z,29.0
2017-07-31T08:13:53.389Z,29.1
2017-07-31T08:14:55.102Z,29.2
2017-07-31T08:15:56.798Z,30.0
2017-07-31T08:16:58.507Z,29.9
2017-07-31T08:18:00.336Z,29.7
2017-07-31T08:19:02.216Z,29.5
2017-07-31T08:20:04.452Z,29.4
2017-07-31T08:21:06.693Z,29.3
2017-07-31T08:22:08.504Z,29.0
2017-07-31T08:23:10.397Z,28.8
2017-07-31T08:24:15.563Z,29.3
2017-07-31T08:25:17.476Z,29.3
2017-07-31T08:26:19.256Z,29.2
2017-07-31T08:27:21.144Z,29.4
2017-07-31T08:28:23.080Z,29.7
2017-07-31T08:29:25.013Z,29.0
2017-07-31T08:30:26.759Z,29.2
2017-07-31T08:31:28.514Z,28.9
2017-07-31T08:32:30.587Z,29.3
2017-07-31T08:33:32.357Z,29.8
2017-07-31T08:34:34.144Z,29.6
2017-07-31T08:35:36.145Z,29.0
2017-07-31T08:36:38.161Z,29.2
2017-07-31T08:37:39.972Z,29.4
2017-07-31T08:38:41.805Z,29.5
2017-07-31T08:39:43.608Z,29.3
2017-07-31T08:40:45.644Z,28.9
2017-07-31T08:41:47.484Z,29.2
2017-07-31T08:42:49.218Z,29.4
2017-07-31T08:43:52.224Z,29.8
2017-07-31T08:44:54.492Z,29.7
2017-07-31T08:45:56.351Z,29.7
2017-07-31T08:46:58.465Z,30.1
2017-07-31T08:48:00.220Z,30.0
2017-07-31T08:49:02.529Z,29.8
2017-07-31T08:50:04.283Z,30.3
2017-07-31T08:51:06.442Z,30.2
2017-07-31T08:52:08.173Z,30.0
2017-07-31T08:53:10.016Z,29.7
2017-07-31T08:54:11.865Z,29.4
2017-07-31T08:55:14.185Z,29.7
2017-07-31T08:56:16.154Z,29.5
2017-07-31T08:57:17.976Z,29.6
2017-07-31T08:58:19.824Z,29.6
2017-07-31T08:59:21.843Z,29.6
2017-07-31T09:00:23.677Z,30.0
2017-07-31T09:01:25.851Z,30.7
2017-07-31T09:04:46.204Z,30.1
2017-07-31T09:05:50.089Z,30.3
2017-07-31T09:06:51.766Z,31.1
2017-07-31T09:07:53.676Z,31.7
2017-07-31T09:08:55.429Z,31.9
2017-07-31T09:09:57.140Z,32.3
2017-07-31T09:10:58.817Z,31.4
2017-07-31T09:12:00.516Z,30.4
2017-07-31T09:13:02.346Z,29.8
2017-07-31T09:14:06.452Z,30.2
2017-07-31T09:15:08.136Z,30.4
2017-07-31T09:16:09.824Z,31.0
2017-07-31T09:17:11.508Z,31.5
2017-07-31T09:18:13.212Z,32.1
2017-07-31T09:19:14.900Z,32.6
2017-07-31T09:20:16.704Z,32.4
2017-07-31T09:21:18.386Z,32.1
2017-07-31T09:22:20.072Z,31.4
2017-07-31T09:23:21.799Z,30.9
2017-07-31T09:24:23.623Z,30.6
2017-07-31T09:25:25.475Z,30.9
2017-07-31T09:27:34.179Z,29.8
2017-07-31T09:28:35.851Z,28.8
2017-07-31T09:29:37.591Z,28.2
2017-07-31T09:30:39.338Z,28.3
2017-07-31T09:31:41.064Z,28.6
2017-07-31T09:32:42.742Z,28.4
2017-07-31T09:33:44.426Z,27.8
2017-07-31T09:34:46.115Z,26.8
2017-07-31T09:35:47.795Z,26.0
2017-07-31T09:36:49.516Z,25.8
2017-07-31T09:37:51.266Z,26.0
2017-07-31T09:38:52.933Z,25.9
2017-07-31T09:39:54.608Z,26.3
2017-07-31T09:40:56.307Z,27.3
2017-07-31T09:41:57.993Z,28.3
2017-07-31T09:42:59.664Z,29.0
2017-07-31T09:44:01.474Z,29.3
2017-07-31T09:45:03.284Z,28.7
2017-07-31T09:46:05.113Z,29.5
2017-07-31T09:47:06.826Z,30.2
2017-07-31T09:48:08.524Z,30.3
2017-07-31T09:49:10.459Z,30.4
2017-07-31T09:50:12.184Z,30.5
2017-07-31T09:51:14.102Z,30.9
2017-07-31T09:52:15.784Z,31.5
2017-07-31T09:53:18.626Z,31.5
2017-07-31T09:54:20.401Z,30.5
2017-07-31T09:55:22.111Z,30.2
2017-07-31T09:56:23.827Z,29.5
2017-07-31T09:57:30.036Z,28.6
2017-07-31T09:58:31.741Z,28.0
2017-07-31T09:59:33.495Z,27.5
2017-07-31T10:00:35.272Z,27.0
2017-07-31T10:01:37.027Z,26.7
2017-07-31T10:02:38.772Z,26.6
2017-07-31T10:03:40.726Z,26.2
2017-07-31T10:04:42.908Z,26.1
2017-07-31T10:05:44.955Z,26.2
2017-07-31T10:06:49.878Z,26.4
2017-07-31T10:07:51.629Z,26.3
2017-07-31T10:08:53.795Z,26.6
2017-07-31T10:09:55.501Z,26.7
2017-07-31T10:10:57.274Z,26.6
2017-07-31T10:11:59.044Z,25.8
2017-07-31T10:13:00.836Z,25.7
2017-07-31T10:14:02.744Z,25.6
2017-07-31T10:15:04.532Z,25.5
2017-07-31T10:16:06.704Z,25.9
2017-07-31T10:17:08.565Z,27.0
2017-07-31T10:18:10.388Z,27.8
2017-07-31T10:19:12.128Z,27.6
2017-07-31T10:20:14.113Z,27.5
2017-07-31T10:21:15.828Z,27.4
2017-07-31T10:22:17.587Z,27.4
2017-07-31T10:23:19.355Z,27.7
2017-07-31T10:24:21.149Z,28.7
2017-07-31T10:40:06.075Z,29.4
2017-07-31T10:41:07.789Z,29.7
2017-07-31T10:42:09.670Z,30.3
2017-07-31T10:43:11.356Z,30.3
2017-07-31T10:44:13.036Z,29.7
2017-07-31T10:45:14.716Z,30.2
2017-07-31T10:46:16.401Z,29.9
2017-07-31T10:47:18.097Z,30.4
2017-07-31T10:48:19.771Z,30.2
2017-07-31T10:49:21.463Z,29.7
2017-07-31T10:50:23.145Z,28.7
2017-07-31T10:51:24.837Z,28.9
2017-07-31T10:52:26.548Z,29.3
2017-07-31T10:53:28.231Z,30.4
2017-07-31T10:54:29.925Z,30.3
2017-07-31T10:55:31.603Z,30.5
2017-07-31T10:56:33.291Z,30.2
2017-07-31T10:57:34.969Z,30.2
2017-07-31T10:58:36.650Z,30.1
2017-07-31T10:59:39.438Z,29.1
2017-07-31T11:00:41.127Z,29.5
2017-07-31T11:01:42.811Z,29.3
2017-07-31T11:02:44.574Z,29.2
2017-07-31T11:03:46.257Z,29.4
2017-07-31T11:04:47.942Z,29.8
2017-07-31T11:05:49.628Z,30.3
2017-07-31T11:06:51.313Z,31.0
2017-07-31T11:07:52.994Z,31.5
2017-07-31T11:08:54.683Z,31.6
2017-07-31T11:09:56.364Z,31.8
2017-07-31T11:10:58.095Z,32.1
2017-07-31T11:11:59.793Z,31.5
2017-07-31T11:13:01.480Z,30.8
2017-07-31T11:14:03.159Z,30.5
2017-07-31T11:15:04.852Z,30.8
2017-07-31T11:16:06.541Z,31.0
2017-07-31T11:17:08.544Z,31.0
2017-07-31T11:18:10.203Z,31.2
2017-07-31T11:19:14.300Z,30.7
2017-07-31T11:20:15.980Z,30.7
2017-07-31T11:21:18.372Z,30.8
2017-07-31T11:22:20.075Z,30.8
2017-07-31T11:23:21.757Z,30.8
2017-07-31T11:24:23.543Z,29.9
2017-07-31T11:25:25.237Z,29.1
2017-07-31T11:26:26.918Z,28.4
2017-07-31T11:27:28.603Z,28.3
2017-07-31T11:28:30.287Z,28.4
2017-07-31T11:29:31.975Z,28.8
2017-07-31T11:30:33.666Z,29.0
2017-07-31T11:31:35.362Z,29.4
2017-07-31T11:32:37.047Z,29.1
2017-07-31T11:33:38.725Z,29.7
2017-07-31T11:34:40.411Z,29.8
2017-07-31T11:35:42.097Z,29.6
2017-07-31T11:36:43.781Z,29.8
2017-07-31T11:37:45.470Z,30.0
2017-07-31T11:38:47.158Z,30.1
2017-07-31T11:39:48.837Z,30.3
2017-07-31T11:40:50.524Z,30.7
2017-07-31T11:41:52.318Z,30.3
2017-07-31T11:42:54.050Z,29.4
2017-07-31T11:43:57.435Z,29.0
2017-07-31T11:44:59.064Z,28.6
2017-07-31T11:46:01.199Z,28.9
2017-07-31T11:47:03.416Z,29.4
2017-07-31T11:48:05.809Z,29.6
2017-07-31T11:49:08.006Z,29.8
2017-07-31T11:50:09.690Z,30.0
2017-07-31T11:51:11.389Z,29.5
2017-07-31T11:52:13.084Z,29.2
2017-07-31T11:53:14.762Z,28.9
2017-07-31T11:54:16.455Z,28.6
2017-07-31T11:55:18.135Z,29.2
2017-07-31T11:56:19.825Z,30.0
2017-07-31T11:57:21.508Z,30.3
2017-07-31T11:58:23.189Z,30.3
2017-07-31T11:59:24.870Z,30.8
2017-07-31T12:00:26.571Z,30.8
2017-07-31T12:01:28.233Z,30.8
2017-07-31T12:02:29.928Z,30.3
2017-07-31T12:03:31.612Z,29.2
2017-07-31T12:04:33.288Z,29.9
2017-07-31T12:05:34.979Z,30.8
2017-07-31T12:06:36.701Z,31.2
2017-07-31T12:07:38.403Z,30.4
2017-07-31T12:08:40.086Z,29.6
2017-07-31T12:09:41.766Z,30.1
2017-07-31T12:10:43.455Z,30.4
2017-07-31T12:11:45.161Z,30.7
2017-07-31T12:12:46.874Z,30.2
2017-07-31T12:13:48.538Z,31.3
2017-07-31T12:14:50.228Z,31.6
2017-07-31T12:15:52.180Z,31.3
2017-07-31T12:16:55.500Z,31.1
2017-07-31T12:17:57.041Z,30.4
2017-07-31T12:18:58.726Z,30.3
2017-07-31T12:20:01.049Z,29.9
2017-07-31T12:21:02.734Z,29.9
2017-07-31T12:22:04.440Z,29.7
2017-07-31T12:23:06.117Z,29.7
2017-07-31T12:24:07.810Z,30.0
2017-07-31T12:25:09.489Z,29.9
2017-07-31T12:26:11.173Z,30.3
2017-07-31T12:27:12.929Z,30.2
2017-07-31T12:28:14.671Z,29.5
2017-07-31T12:29:16.349Z,29.9
2017-07-31T12:30:18.035Z,30.1
2017-07-31T12:31:19.713Z,29.9
2017-07-31T12:32:21.397Z,29.1
2017-07-31T12:33:23.080Z,28.4
2017-07-31T12:34:24.758Z,28.0
2017-07-31T12:35:26.451Z,27.2
2017-07-31T12:36:28.131Z,27.0
2017-07-31T12:37:29.815Z,27.0
2017-07-31T12:38:31.491Z,26.9
2017-07-31T12:39:33.166Z,27.4
2017-07-31T12:40:34.879Z,28.0
2017-07-31T12:41:36.701Z,28.4
2017-07-31T12:42:38.381Z,28.7
2017-07-31T12:43:40.067Z,28.8
2017-07-31T12:44:41.755Z,29.0
2017-07-31T12:45:43.427Z,29.3
2017-07-31T12:46:45.164Z,29.4
2017-07-31T12:47:46.842Z,29.8
2017-07-31T12:48:48.523Z,29.7
2017-07-31T12:49:50.220Z,29.3
2017-07-31T12:50:51.914Z,29.0
2017-07-31T12:51:53.575Z,28.3
2017-07-31T12:52:55.258Z,27.8
2017-07-31T12:53:56.942Z,27.7
2017-07-31T12:54:58.632Z,28.1
2017-07-31T12:56:00.314Z,28.6
2017-07-31T12:57:02.000Z,28.9
2017-07-31T12:58:03.761Z,28.9
2017-07-31T12:59:05.446Z,28.5
2017-07-31T13:00:07.121Z,28.2
2017-07-31T13:01:09.504Z,27.7
2017-07-31T13:02:11.200Z,27.5
2017-07-31T13:20:18.073Z,27.1
2017-07-31T13:21:19.782Z,27.2
2017-07-31T13:22:21.468Z,27.6
2017-07-31T13:23:23.145Z,28.8
2017-07-31T13:24:24.823Z,29.3
2017-07-31T13:25:26.509Z,30.1
2017-07-31T13:26:28.190Z,30.3
2017-07-31T13:27:29.889Z,30.2
2017-07-31T13:28:37.605Z,30.3
2017-07-31T13:29:39.365Z,29.8
2017-07-31T13:30:41.803Z,29.2
2017-07-31T13:31:43.482Z,28.6
2017-07-31T13:33:59.062Z,28.0
2017-07-31T13:35:01.111Z,27.7
2017-07-31T13:36:02.877Z,27.9
2017-07-31T13:45:49.204Z,29.9
2017-07-31T13:49:22.441Z,30.6
2017-07-31T13:50:24.085Z,30.5
2017-07-31T13:51:26.081Z,30.8
2017-07-31T13:52:27.762Z,31.4
2017-07-31T13:53:29.469Z,31.6
2017-07-31T13:54:32.269Z,31.4
2017-07-31T13:55:33.959Z,31.4
2017-07-31T13:56:35.642Z,30.7
2017-07-31T13:57:37.320Z,31.1
2017-07-31T13:58:39.007Z,30.7
2017-07-31T13:59:40.690Z,31.1
2017-07-31T14:00:42.373Z,31.2
2017-07-31T14:01:44.064Z,31.3
2017-07-31T14:02:45.743Z,31.4
2017-07-31T14:03:47.423Z,31.5
2017-07-31T14:04:49.133Z,31.6
2017-07-31T14:05:50.854Z,31.7
2017-07-31T14:06:52.603Z,31.3
2017-07-31T14:07:54.311Z,31.5
2017-07-31T14:08:56.064Z,31.4
2017-07-31T14:09:57.919Z,31.3
2017-07-31T14:10:59.846Z,31.5
2017-07-31T14:12:01.698Z,31.5
2017-07-31T14:13:03.941Z,31.8
2017-07-31T14:14:05.798Z,31.4
2017-07-31T14:15:07.632Z,31.3
2017-07-31T14:16:09.539Z,31.1
2017-07-31T14:17:11.418Z,31.1
2017-07-31T14:18:13.341Z,31.2
2017-07-31T14:19:15.113Z,31.3
2017-07-31T14:20:17.051Z,31.2
2017-07-31T14:21:19.151Z,31.9
2017-07-31T14:22:20.880Z,31.4
2017-07-31T14:24:45.510Z,30.9
2017-07-31T14:25:47.423Z,30.4
2017-07-31T14:26:49.285Z,29.8
2017-07-31T14:27:51.136Z,29.7
2017-07-31T14:28:53.059Z,29.9
2017-07-31T14:29:54.861Z,30.3
2017-07-31T14:30:56.712Z,29.9
2017-07-31T14:31:58.499Z,29.9
2017-07-31T14:33:00.339Z,30.4
2017-07-31T14:34:02.182Z,30.8
2017-07-31T14:35:04.037Z,30.9
2017-07-31T14:36:05.888Z,29.9
2017-07-31T14:37:07.814Z,29.7
2017-07-31T14:38:09.593Z,29.0
2017-07-31T14:39:11.441Z,28.4
2017-07-31T14:40:14.466Z,28.4
2017-07-31T14:41:16.237Z,28.5
2017-07-31T14:42:18.250Z,28.8
2017-07-31T14:43:20.043Z,28.4
2017-07-31T14:44:21.883Z,28.4
2017-07-31T14:45:23.710Z,28.6
2017-07-31T14:46:25.568Z,28.6
2017-07-31T14:47:27.380Z,28.3
2017-07-31T14:48:29.159Z,28.2
2017-07-31T14:49:31.301Z,28.0
2017-07-31T14:50:33.140Z,27.9
2017-07-31T14:51:34.943Z,27.9
2017-07-31T14:52:40.695Z,28.3
2017-07-31T14:53:42.181Z,28.0
2017-07-31T14:54:43.984Z,27.9
2017-07-31T14:55:45.790Z,28.0
2017-07-31T14:56:49.022Z,28.0
2017-07-31T14:57:50.767Z,27.6
2017-07-31T14:58:52.563Z,27.6
2017-07-31T14:59:54.351Z,27.3
2017-07-31T15:00:56.167Z,27.2
2017-07-31T15:01:57.904Z,27.4
2017-07-31T15:02:59.748Z,27.4
2017-07-31T15:04:01.547Z,27.3
2017-07-31T15:05:03.315Z,27.1
2017-07-31T15:06:05.115Z,27.2
2017-07-31T15:07:06.956Z,27.1
2017-07-31T15:08:08.821Z,27.2
2017-07-31T15:09:10.638Z,27.2
2017-07-31T15:10:12.449Z,27.1
2017-07-31T15:11:14.306Z,27.2
2017-07-31T15:12:16.082Z,27.4
2017-07-31T15:13:17.900Z,27.5
2017-07-31T15:14:19.611Z,27.5
2017-07-31T15:15:21.356Z,27.4
2017-07-31T15:16:23.090Z,27.0
2017-07-31T15:17:24.824Z,26.8
2017-07-31T15:18:26.511Z,26.6
2017-07-31T15:19:28.202Z,26.4
2017-07-31T15:20:31.247Z,26.3
2017-07-31T15:21:33.039Z,26.4
2017-07-31T15:22:34.779Z,26.4
2017-07-31T15:23:36.629Z,26.5
2017-07-31T15:24:38.525Z,26.4
2017-07-31T15:25:41.329Z,26.3
2017-07-31T15:26:45.240Z,26.3
2017-07-31T15:27:47.015Z,26.4
2017-07-31T15:28:48.824Z,26.9
2017-07-31T15:29:50.619Z,27.1
2017-07-31T15:30:52.531Z,27.4
2017-07-31T15:31:54.373Z,27.6
2017-07-31T15:32:56.119Z,27.6
2017-07-31T15:33:57.925Z,27.9
2017-07-31T15:34:59.760Z,27.8
2017-07-31T15:36:01.600Z,27.8
2017-07-31T15:37:03.392Z,27.7
2017-07-31T15:38:11.469Z,27.7
2017-07-31T15:39:13.663Z,27.7
2017-07-31T15:40:15.500Z,27.5
2017-07-31T16:22:16.513Z,26.4
2017-07-31T16:23:18.193Z,26.3
2017-07-31T16:26:16.771Z,26.2
2017-07-31T16:27:18.464Z,26.1
2017-07-31T16:28:20.137Z,25.9
2017-07-31T16:29:21.805Z,25.8
2017-07-31T16:30:23.478Z,25.8
2017-07-31T16:31:25.161Z,25.7
2017-07-31T16:32:26.853Z,25.7
2017-07-31T16:33:28.525Z,25.7
2017-07-31T16:34:30.206Z,25.8
2017-07-31T16:35:31.891Z,25.6
2017-07-31T16:36:33.575Z,25.7
2017-07-31T16:37:35.236Z,25.6
2017-07-31T16:38:36.930Z,25.5
2017-07-31T16:39:39.162Z,25.5
2017-07-31T16:40:40.895Z,25.5
2017-07-31T16:41:42.561Z,25.6
2017-07-31T16:42:44.274Z,25.6
2017-07-31T16:43:46.029Z,25.6
2017-07-31T16:44:47.717Z,25.6
2017-07-31T16:45:49.437Z,25.5
2017-07-31T16:46:51.140Z,25.5
2017-07-31T16:47:52.846Z,25.5
2017-07-31T16:48:54.510Z,25.5
2017-07-31T16:49:56.205Z,25.5
2017-07-31T16:50:57.898Z,25.5
2017-07-31T16:51:59.575Z,25.6
2017-07-31T16:53:01.256Z,25.7
2017-07-31T16:54:03.016Z,25.5
2017-07-31T16:55:04.744Z,25.6
2017-07-31T16:56:06.476Z,25.7
2017-07-31T16:57:08.177Z,25.8
2017-07-31T16:58:09.839Z,25.9
2017-07-31T16:59:11.526Z,25.8
2017-07-31T17:00:13.239Z,25.6
2017-07-31T17:01:14.925Z,25.4
2017-07-31T17:02:16.600Z,25.4
2017-07-31T17:03:18.277Z,25.4
2017-07-31T17:04:19.948Z,25.3
2017-07-31T17:05:21.622Z,25.2
2017-07-31T17:06:23.318Z,25.1
2017-07-31T17:07:24.986Z,25.3
2017-07-31T17:08:26.724Z,25.3
2017-07-31T17:09:28.398Z,25.1
2017-07-31T17:12:42.667Z,25.2
2017-07-31T17:13:44.327Z,25.2
2017-07-31T17:14:45.995Z,25.2
2017-07-31T17:15:47.676Z,25.0
2017-07-31T17:16:49.347Z,25.0
2017-07-31T17:17:51.025Z,25.0
2017-07-31T17:18:52.696Z,24.9
2017-07-31T17:19:54.374Z,24.9
2017-07-31T17:20:56.043Z,24.9
2017-07-31T17:21:57.729Z,24.8
2017-07-31T17:22:59.410Z,24.8
2017-07-31T17:24:01.078Z,24.7
2017-07-31T17:25:04.367Z,24.8
2017-07-31T17:26:06.026Z,24.8
2017-07-31T17:27:07.763Z,24.9
2017-07-31T17:28:10.013Z,25.0
2017-07-31T17:29:11.684Z,25.0
2017-07-31T17:30:13.365Z,25.0
2017-07-31T17:31:15.312Z,25.1
2017-07-31T17:32:17.035Z,25.1
2017-07-31T17:33:18.708Z,25.0
2017-07-31T17:34:20.490Z,25.0
2017-07-31T17:35:22.461Z,25.0
2017-07-31T17:36:24.147Z,24.9
2017-07-31T17:37:26.052Z,24.8
2017-07-31T17:38:28.104Z,24.7
2017-07-31T17:39:29.865Z,24.7
2017-07-31T17:46:29.406Z,24.5
2017-07-31T17:47:31.258Z,24.5
2017-07-31T17:48:32.863Z,24.5
2017-07-31T17:49:34.539Z,24.5
2017-07-31T17:50:36.213Z,24.3
2017-07-31T17:52:15.744Z,24.2
2017-07-31T17:53:19.777Z,24.2
2017-07-31T17:54:27.283Z,24.1
2017-07-31T17:55:28.972Z,24.1
2017-07-31T17:56:30.811Z,24.1
2017-07-31T17:57:32.822Z,24.0
2017-07-31T17:59:06.555Z,24.0
2017-07-31T18:00:25.775Z,23.8
2017-07-31T18:08:14.823Z,23.6
2017-07-31T18:09:16.495Z,23.6
2017-07-31T18:10:18.222Z,23.6
2017-07-31T18:11:19.886Z,23.6
2017-07-31T18:12:21.623Z,23.5
2017-07-31T18:13:23.295Z,23.3
2017-07-31T18:14:24.977Z,23.4
2017-07-31T18:15:28.063Z,23.4
2017-07-31T18:16:29.968Z,23.4
2017-07-31T18:17:33.385Z,23.4
2017-07-31T18:25:45.456Z,23.4
2017-07-31T18:26:47.173Z,23.3
2017-07-31T18:27:49.385Z,23.2
2017-07-31T18:28:51.045Z,23.1
2017-07-31T18:29:52.726Z,22.9
2017-07-31T18:30:54.431Z,22.7
2017-07-31T18:31:57.042Z,22.8
2017-07-31T18:32:58.705Z,22.5
2017-07-31T18:34:00.773Z,22.6
2017-07-31T18:35:02.764Z,22.5
2017-07-31T18:36:04.426Z,22.4
2017-07-31T18:37:06.121Z,22.4
2017-07-31T18:38:07.767Z,22.3
2017-07-31T18:39:09.940Z,22.1
2017-07-31T18:40:11.606Z,22.1
2017-07-31T18:41:13.271Z,22.0
2017-07-31T18:42:14.989Z,21.9
2017-07-31T18:43:16.666Z,21.8
2017-07-31T18:44:18.535Z,21.6
2017-07-31T18:45:20.218Z,21.7
2017-07-31T18:46:22.178Z,21.6
2017-07-31T18:47:23.897Z,21.4
2017-07-31T18:48:26.321Z,21.5
2017-07-31T18:49:28.010Z,21.4
2017-07-31T18:50:30.006Z,21.4
2017-07-31T18:51:38.041Z,21.2
2017-07-31T18:52:39.708Z,21.2
2017-07-31T18:53:41.807Z,21.2
2017-07-31T18:54:43.614Z,21.1
2017-07-31T18:55:45.326Z,21.1
2017-07-31T18:56:47.039Z,21.0
2017-07-31T18:57:49.516Z,20.7
2017-07-31T18:58:51.086Z,20.7
2017-07-31T18:59:53.540Z,20.6
2017-07-31T19:00:55.297Z,20.5
2017-07-31T19:01:57.165Z,20.5
2017-07-31T19:02:59.366Z,20.6
2017-07-31T19:04:01.219Z,20.6
2017-07-31T19:05:03.091Z,20.6
2017-07-31T19:06:04.837Z,20.7
2017-07-31T19:07:06.618Z,20.8
2017-07-31T19:08:08.439Z,20.9
2017-07-31T19:09:10.128Z,20.8
2017-07-31T19:10:11.995Z,20.7
2017-07-31T19:11:13.664Z,20.6
2017-07-31T19:12:15.363Z,20.5
2017-07-31T19:13:17.032Z,20.5
2017-07-31T19:14:19.143Z,20.5
2017-07-31T19:15:20.813Z,20.4
2017-07-31T19:16:22.486Z,20.3
2017-07-31T19:17:24.224Z,20.3
2017-07-31T19:18:25.892Z,20.3
2017-07-31T19:19:27.608Z,20.2
2017-07-31T19:20:29.384Z,20.3
2017-07-31T19:21:31.118Z,20.4
2017-07-31T19:22:32.784Z,20.4
2017-07-31T19:23:34.463Z,20.5
2017-07-31T19:24:36.240Z,20.5
2017-07-31T19:25:38.075Z,20.5
2017-07-31T19:26:39.787Z,20.5
2017-07-31T19:27:41.550Z,20.4
2017-07-31T19:28:44.839Z,20.5
2017-07-31T19:29:46.613Z,20.5
2017-07-31T19:30:48.260Z,20.4
2017-07-31T19:31:51.719Z,20.6
2017-07-31T19:32:55.756Z,20.6
2017-07-31T19:33:57.618Z,20.5
2017-07-31T19:34:59.369Z,20.5
2017-07-31T19:36:01.064Z,20.5
2017-07-31T19:37:02.754Z,20.5
2017-07-31T19:38:04.452Z,20.4
2017-07-31T19:39:06.115Z,20.3
2017-07-31T19:40:09.478Z,20.2
2017-07-31T19:41:11.137Z,20.2
2017-07-31T19:42:13.064Z,20.2
2017-07-31T19:43:14.781Z,20.0
2017-07-31T19:44:16.526Z,20.1
2017-07-31T19:45:18.272Z,19.9
2017-07-31T19:46:20.124Z,19.8
2017-07-31T19:47:21.804Z,19.8
2017-07-31T19:48:23.493Z,19.9
2017-07-31T19:49:25.208Z,19.9
2017-07-31T19:50:26.924Z,19.9
2017-07-31T19:51:28.678Z,19.7
2017-07-31T19:52:30.545Z,19.7
2017-07-31T19:53:32.265Z,19.6
2017-07-31T19:54:33.964Z,19.6
2017-07-31T20:33:57.454Z,19.1
2017-07-31T20:34:59.255Z,19.2
2017-07-31T20:36:00.924Z,19.1
2017-07-31T20:37:02.592Z,19.3
2017-07-31T20:38:04.317Z,19.3
2017-07-31T20:39:05.985Z,19.4
2017-07-31T20:40:07.641Z,19.5
2017-07-31T20:41:09.325Z,19.5
2017-07-31T20:42:10.986Z,19.5
2017-07-31T20:43:12.653Z,19.5
2017-07-31T20:44:14.357Z,19.5
2017-07-31T20:45:16.040Z,19.5
2017-07-31T20:46:17.701Z,19.6
2017-07-31T20:47:19.460Z,19.6
2017-07-31T20:48:21.120Z,19.6
2017-07-31T20:49:22.789Z,19.6
2017-07-31T20:50:24.533Z,19.6
2017-07-31T20:51:26.193Z,19.6
2017-07-31T20:52:27.860Z,19.6
2017-07-31T20:53:30.471Z,19.5
2017-07-31T20:54:32.145Z,19.6
2017-07-31T20:55:33.912Z,19.6
2017-07-31T20:56:35.573Z,19.6
2017-07-31T20:57:37.238Z,19.6
2017-07-31T20:58:38.899Z,19.5
2017-07-31T20:59:40.559Z,19.6
2017-07-31T21:00:42.221Z,19.5
2017-07-31T21:01:43.893Z,19.4
2017-07-31T21:02:45.556Z,19.5
2017-07-31T21:03:47.216Z,19.5
2017-07-31T21:04:48.878Z,19.5
2017-07-31T21:05:50.539Z,19.4
2017-07-31T21:06:52.207Z,19.4
2017-07-31T21:07:53.869Z,19.4
2017-07-31T21:08:55.535Z,19.2
2017-07-31T21:09:57.193Z,19.3
2017-07-31T21:10:58.870Z,19.2
2017-07-31T21:12:00.524Z,19.0
2017-07-31T21:13:02.192Z,19.0
2017-07-31T21:14:03.842Z,18.8
2017-07-31T21:15:05.530Z,18.8
2017-07-31T21:16:07.175Z,18.8
2017-07-31T21:18:18.450Z,18.7
2017-07-31T21:19:20.125Z,18.7
2017-07-31T21:20:21.791Z,18.7
2017-07-31T21:21:23.924Z,18.6
2017-07-31T21:22:25.654Z,18.7
2017-07-31T21:23:27.349Z,18.5
2017-07-31T21:24:29.101Z,18.5
2017-07-31T21:25:30.770Z,18.5
2017-07-31T21:26:32.429Z,18.4
2017-07-31T21:27:34.091Z,18.4
2017-07-31T21:28:35.763Z,18.5
2017-07-31T21:29:37.425Z,18.5
2017-07-31T21:30:39.094Z,18.6
2017-07-31T21:31:40.762Z,18.5
2017-07-31T21:32:43.629Z,18.4
2017-07-31T21:33:45.305Z,18.4
2017-07-31T21:34:46.974Z,18.4
2017-07-31T21:35:48.640Z,18.3
2017-07-31T21:36:50.311Z,18.4
2017-07-31T21:37:51.982Z,18.3
2017-07-31T21:38:53.776Z,18.3
2017-07-31T21:39:55.444Z,18.3
2017-07-31T21:40:57.132Z,18.3
2017-07-31T21:41:58.807Z,18.4
2017-07-31T21:43:00.477Z,18.4
2017-07-31T21:47:02.187Z,18.3
2017-07-31T21:48:03.838Z,18.3
2017-07-31T21:49:05.507Z,18.4
2017-07-31T21:50:07.883Z,18.4
2017-07-31T21:51:09.544Z,18.5
2017-07-31T21:52:11.210Z,18.6
2017-07-31T21:53:12.890Z,18.7
2017-07-31T21:54:14.566Z,18.8
2017-07-31T21:55:16.228Z,18.8
2017-07-31T21:56:17.891Z,18.9
2017-07-31T21:57:19.646Z,18.8
2017-07-31T21:58:21.314Z,19.0
2017-07-31T21:59:22.987Z,18.9
2017-07-31T22:00:24.677Z,18.9
2017-07-31T22:01:26.326Z,18.8
2017-07-31T22:02:27.985Z,18.8
2017-07-31T22:03:29.646Z,18.7
2017-07-31T22:04:31.322Z,18.8
2017-07-31T22:05:32.988Z,18.7
2017-07-31T22:06:34.656Z,18.7
2017-07-31T22:07:36.319Z,18.6
2017-07-31T22:08:37.987Z,18.7
2017-07-31T22:09:41.300Z,18.7
2017-07-31T22:10:42.971Z,18.8
2017-07-31T22:11:44.625Z,18.9
2017-07-31T22:12:46.299Z,18.9
2017-07-31T22:13:47.973Z,18.9
2017-07-31T22:14:49.633Z,18.9
2017-07-31T22:15:51.298Z,19.0
2017-07-31T22:16:52.966Z,18.9
2017-07-31T22:17:54.623Z,18.9
2017-07-31T22:18:56.295Z,18.9
2017-07-31T22:19:57.962Z,18.9
2017-07-31T22:20:59.634Z,18.9
2017-07-31T22:22:01.302Z,18.9
2017-07-31T22:23:02.976Z,19.0
2017-07-31T22:24:04.636Z,19.0
2017-07-31T22:25:06.304Z,19.0
2017-07-31T22:26:08.030Z,18.9
2017-07-31T22:27:09.695Z,19.0
2017-07-31T22:28:11.367Z,18.9
2017-07-31T22:29:13.030Z,18.9
2017-07-31T22:30:14.701Z,18.8
2017-07-31T22:31:16.365Z,18.9
2017-07-31T22:32:18.029Z,18.8
2017-07-31T22:33:19.690Z,18.7
2017-07-31T22:34:21.356Z,18.7
2017-07-31T22:35:23.019Z,18.7
2017-07-31T22:36:24.684Z,18.7
2017-07-31T22:37:26.361Z,18.7
2017-07-31T22:38:28.021Z,18.6
2017-07-31T22:39:29.698Z,18.6
2017-07-31T22:40:31.359Z,18.7
2017-07-31T22:41:33.027Z,18.7
2017-07-31T22:42:34.689Z,18.7
2017-07-31T22:43:36.351Z,18.6
2017-07-31T22:44:38.011Z,18.5
2017-07-31T22:45:39.675Z,18.6
2017-07-31T22:46:41.346Z,18.7
2017-07-31T22:47:43.033Z,18.7
2017-07-31T22:48:44.696Z,18.6
